sensor_id;sensor_type;location;lat;lon;timestamp;temperature;humidity
23010;DHT22;11671;49.990;8.028;2023-04-03T00:01:14;7.10;99.90
23010;DHT22;11671;49.990;8.028;2023-04-03T00:03:40;7.10;99.90
23010;DHT22;11671;49.990;8.028;2023-04-03T00:06:09;7.10;99.90
23010;DHT22;11671;49.990;8.028;2023-04-03T00:08:36;7.10;99.90
23010;DHT22;11671;49.990;8.028;2023-04-03T00:11:02;7.10;99.90
23010;DHT22;11671;49.990;8.028;2023-04-03T00:13:28;7.20;99.90
23010;DHT22;11671;49.990;8.028;2023-04-03T00:15:53;7.20;99.90
23010;DHT22;11671;49.990;8.028;2023-04-03T00:18:19;7.20;99.90
23010;DHT22;11671;49.990;8.028;2023-04-03T00:20:45;7.20;99.90
23010;DHT22;11671;49.990;8.028;2023-04-03T00:23:10;7.20;99.90
23010;DHT22;11671;49.990;8.028;2023-04-03T00:25:36;7.20;99.90
23010;DHT22;11671;49.990;8.028;2023-04-03T00:28:02;7.30;99.90
23010;DHT22;11671;49.990;8.028;2023-04-03T00:30:27;7.20;99.90
23010;DHT22;11671;49.990;8.028;2023-04-03T00:32:53;7.30;99.90
23010;DHT22;11671;49.990;8.028;2023-04-03T00:35:19;7.30;99.90
23010;DHT22;11671;49.990;8.028;2023-04-03T00:37:45;7.30;99.90
23010;DHT22;11671;49.990;8.028;2023-04-03T00:40:12;7.40;99.90
23010;DHT22;11671;49.990;8.028;2023-04-03T00:42:39;7.30;99.90
23010;DHT22;11671;49.990;8.028;2023-04-03T00:47:30;7.30;99.90
23010;DHT22;11671;49.990;8.028;2023-04-03T00:49:56;7.30;99.90
23010;DHT22;11671;49.990;8.028;2023-04-03T00:52:23;7.30;99.90
23010;DHT22;11671;49.990;8.028;2023-04-03T00:54:50;7.30;99.90
23010;DHT22;11671;49.990;8.028;2023-04-03T00:57:17;7.20;99.90
23010;DHT22;11671;49.990;8.028;2023-04-03T00:59:44;7.20;99.90
23010;DHT22;11671;49.990;8.028;2023-04-03T01:02:10;7.20;99.90
23010;DHT22;11671;49.990;8.028;2023-04-03T01:04:40;7.10;99.90
23010;DHT22;11671;49.990;8.028;2023-04-03T01:07:14;7.10;99.90
23010;DHT22;11671;49.990;8.028;2023-04-03T01:09:40;7.10;99.90
23010;DHT22;11671;49.990;8.028;2023-04-03T01:12:22;7.10;99.90
23010;DHT22;11671;49.990;8.028;2023-04-03T01:14:49;7.10;99.90
23010;DHT22;11671;49.990;8.028;2023-04-03T01:17:24;7.10;99.90
23010;DHT22;11671;49.990;8.028;2023-04-03T01:19:51;7.10;99.90
23010;DHT22;11671;49.990;8.028;2023-04-03T01:22:30;7.20;99.90
23010;DHT22;11671;49.990;8.028;2023-04-03T01:25:01;7.20;99.90
23010;DHT22;11671;49.990;8.028;2023-04-03T01:27:26;7.20;99.90
23010;DHT22;11671;49.990;8.028;2023-04-03T01:29:52;7.10;99.90
23010;DHT22;11671;49.990;8.028;2023-04-03T01:32:18;7.10;99.90
23010;DHT22;11671;49.990;8.028;2023-04-03T01:34:43;7.10;99.90
23010;DHT22;11671;49.990;8.028;2023-04-03T01:37:09;7.20;99.90
23010;DHT22;11671;49.990;8.028;2023-04-03T01:39:34;7.10;99.90
23010;DHT22;11671;49.990;8.028;2023-04-03T01:42:00;7.10;99.90
23010;DHT22;11671;49.990;8.028;2023-04-03T01:44:26;7.10;99.90
23010;DHT22;11671;49.990;8.028;2023-04-03T01:46:51;7.00;99.90
23010;DHT22;11671;49.990;8.028;2023-04-03T01:49:16;7.00;99.90
23010;DHT22;11671;49.990;8.028;2023-04-03T01:51:42;7.00;99.90
23010;DHT22;11671;49.990;8.028;2023-04-03T01:54:07;7.00;99.90
23010;DHT22;11671;49.990;8.028;2023-04-03T01:56:33;7.00;99.90
23010;DHT22;11671;49.990;8.028;2023-04-03T01:58:58;7.00;99.90
23010;DHT22;11671;49.990;8.028;2023-04-03T02:01:24;7.00;99.90
23010;DHT22;11671;49.990;8.028;2023-04-03T02:03:51;7.00;99.90
23010;DHT22;11671;49.990;8.028;2023-04-03T02:06:16;7.00;99.90
23010;DHT22;11671;49.990;8.028;2023-04-03T02:08:42;6.90;99.90
23010;DHT22;11671;49.990;8.028;2023-04-03T02:11:07;6.90;99.90
23010;DHT22;11671;49.990;8.028;2023-04-03T02:13:33;6.80;99.90
23010;DHT22;11671;49.990;8.028;2023-04-03T02:15:58;6.80;99.90
23010;DHT22;11671;49.990;8.028;2023-04-03T02:18:24;6.80;99.90
23010;DHT22;11671;49.990;8.028;2023-04-03T02:20:49;6.80;99.90
23010;DHT22;11671;49.990;8.028;2023-04-03T02:23:15;6.80;99.90
23010;DHT22;11671;49.990;8.028;2023-04-03T02:25:40;6.80;99.90
23010;DHT22;11671;49.990;8.028;2023-04-03T02:28:06;6.70;99.90
23010;DHT22;11671;49.990;8.028;2023-04-03T02:30:31;6.70;99.90
23010;DHT22;11671;49.990;8.028;2023-04-03T02:32:57;6.80;99.90
23010;DHT22;11671;49.990;8.028;2023-04-03T02:35:22;6.80;99.90
23010;DHT22;11671;49.990;8.028;2023-04-03T02:37:48;6.90;99.90
23010;DHT22;11671;49.990;8.028;2023-04-03T02:40:13;6.80;99.90
23010;DHT22;11671;49.990;8.028;2023-04-03T02:42:39;6.90;99.90
23010;DHT22;11671;49.990;8.028;2023-04-03T02:45:05;6.90;99.90
23010;DHT22;11671;49.990;8.028;2023-04-03T02:47:30;6.90;99.90
23010;DHT22;11671;49.990;8.028;2023-04-03T02:49:56;6.80;99.90
23010;DHT22;11671;49.990;8.028;2023-04-03T02:52:21;6.80;99.90
23010;DHT22;11671;49.990;8.028;2023-04-03T02:54:47;6.80;99.90
23010;DHT22;11671;49.990;8.028;2023-04-03T02:57:12;6.80;99.90
23010;DHT22;11671;49.990;8.028;2023-04-03T02:59:38;6.80;99.90
23010;DHT22;11671;49.990;8.028;2023-04-03T03:02:07;6.80;99.90
23010;DHT22;11671;49.990;8.028;2023-04-03T03:04:33;6.90;99.90
23010;DHT22;11671;49.990;8.028;2023-04-03T03:06:58;6.90;99.90
23010;DHT22;11671;49.990;8.028;2023-04-03T03:09:23;6.90;99.90
23010;DHT22;11671;49.990;8.028;2023-04-03T03:11:50;6.80;99.90
23010;DHT22;11671;49.990;8.028;2023-04-03T03:14:15;6.80;99.90
23010;DHT22;11671;49.990;8.028;2023-04-03T03:16:41;6.90;99.90
23010;DHT22;11671;49.990;8.028;2023-04-03T03:19:06;6.90;99.90
23010;DHT22;11671;49.990;8.028;2023-04-03T03:21:32;6.90;99.90
23010;DHT22;11671;49.990;8.028;2023-04-03T03:23:57;6.80;99.90
23010;DHT22;11671;49.990;8.028;2023-04-03T03:26:23;6.70;99.90
23010;DHT22;11671;49.990;8.028;2023-04-03T03:28:48;6.80;99.90
23010;DHT22;11671;49.990;8.028;2023-04-03T03:31:14;6.80;99.90
23010;DHT22;11671;49.990;8.028;2023-04-03T03:33:40;6.80;99.90
23010;DHT22;11671;49.990;8.028;2023-04-03T03:36:06;6.80;99.90
23010;DHT22;11671;49.990;8.028;2023-04-03T03:38:32;6.70;99.90
23010;DHT22;11671;49.990;8.028;2023-04-03T03:40:57;6.70;99.90
23010;DHT22;11671;49.990;8.028;2023-04-03T03:43:23;6.80;99.90
23010;DHT22;11671;49.990;8.028;2023-04-03T03:45:51;6.70;99.90
23010;DHT22;11671;49.990;8.028;2023-04-03T03:48:17;6.70;99.90
23010;DHT22;11671;49.990;8.028;2023-04-03T03:50:43;6.60;99.90
23010;DHT22;11671;49.990;8.028;2023-04-03T03:53:08;6.50;99.90
23010;DHT22;11671;49.990;8.028;2023-04-03T03:55:34;6.50;99.90
23010;DHT22;11671;49.990;8.028;2023-04-03T03:57:59;6.50;99.90
23010;DHT22;11671;49.990;8.028;2023-04-03T04:00:26;6.50;99.90
23010;DHT22;11671;49.990;8.028;2023-04-03T04:02:52;6.40;99.90
23010;DHT22;11671;49.990;8.028;2023-04-03T04:05:17;6.20;99.90
23010;DHT22;11671;49.990;8.028;2023-04-03T04:07:43;6.20;99.90
23010;DHT22;11671;49.990;8.028;2023-04-03T04:10:08;6.10;99.90
23010;DHT22;11671;49.990;8.028;2023-04-03T04:12:34;6.10;99.90
23010;DHT22;11671;49.990;8.028;2023-04-03T04:15:01;6.10;99.90
23010;DHT22;11671;49.990;8.028;2023-04-03T04:17:26;6.10;99.90
23010;DHT22;11671;49.990;8.028;2023-04-03T04:19:52;6.10;99.90
23010;DHT22;11671;49.990;8.028;2023-04-03T04:22:17;6.00;99.90
23010;DHT22;11671;49.990;8.028;2023-04-03T04:24:43;6.10;99.90
23010;DHT22;11671;49.990;8.028;2023-04-03T04:27:08;6.10;99.90
23010;DHT22;11671;49.990;8.028;2023-04-03T04:29:34;6.00;99.90
23010;DHT22;11671;49.990;8.028;2023-04-03T04:32:02;6.00;99.90
23010;DHT22;11671;49.990;8.028;2023-04-03T04:34:27;6.00;99.90
23010;DHT22;11671;49.990;8.028;2023-04-03T04:36:53;6.00;99.90
23010;DHT22;11671;49.990;8.028;2023-04-03T04:39:18;5.90;99.90
23010;DHT22;11671;49.990;8.028;2023-04-03T04:41:44;5.80;99.90
23010;DHT22;11671;49.990;8.028;2023-04-03T04:44:10;5.80;99.90
23010;DHT22;11671;49.990;8.028;2023-04-03T04:46:35;5.80;99.90
23010;DHT22;11671;49.990;8.028;2023-04-03T04:49:01;5.80;99.90
23010;DHT22;11671;49.990;8.028;2023-04-03T04:51:26;5.80;99.90
23010;DHT22;11671;49.990;8.028;2023-04-03T04:53:51;5.80;99.90
23010;DHT22;11671;49.990;8.028;2023-04-03T04:56:17;5.80;99.90
23010;DHT22;11671;49.990;8.028;2023-04-03T04:58:42;5.90;99.90
23010;DHT22;11671;49.990;8.028;2023-04-03T05:01:09;5.90;99.90
23010;DHT22;11671;49.990;8.028;2023-04-03T05:03:34;5.90;99.90
23010;DHT22;11671;49.990;8.028;2023-04-03T05:06:00;5.90;99.90
23010;DHT22;11671;49.990;8.028;2023-04-03T05:08:26;5.80;99.90
23010;DHT22;11671;49.990;8.028;2023-04-03T05:10:51;5.80;99.90
23010;DHT22;11671;49.990;8.028;2023-04-03T05:13:18;5.70;99.90
23010;DHT22;11671;49.990;8.028;2023-04-03T05:15:43;5.70;99.90
23010;DHT22;11671;49.990;8.028;2023-04-03T05:18:09;5.60;99.90
23010;DHT22;11671;49.990;8.028;2023-04-03T05:20:35;5.50;99.90
23010;DHT22;11671;49.990;8.028;2023-04-03T05:23:02;5.50;99.90
23010;DHT22;11671;49.990;8.028;2023-04-03T05:25:28;5.50;99.90
23010;DHT22;11671;49.990;8.028;2023-04-03T05:27:53;5.60;99.90
23010;DHT22;11671;49.990;8.028;2023-04-03T05:30:19;5.70;99.90
23010;DHT22;11671;49.990;8.028;2023-04-03T05:32:44;5.70;99.90
23010;DHT22;11671;49.990;8.028;2023-04-03T05:35:10;5.70;99.90
23010;DHT22;11671;49.990;8.028;2023-04-03T05:37:36;5.70;99.90
23010;DHT22;11671;49.990;8.028;2023-04-03T05:40:02;5.80;99.90
23010;DHT22;11671;49.990;8.028;2023-04-03T05:42:28;5.80;99.90
23010;DHT22;11671;49.990;8.028;2023-04-03T05:44:53;5.80;99.90
23010;DHT22;11671;49.990;8.028;2023-04-03T05:47:19;5.90;99.90
23010;DHT22;11671;49.990;8.028;2023-04-03T05:49:44;5.90;99.90
23010;DHT22;11671;49.990;8.028;2023-04-03T05:52:24;5.90;99.90
23010;DHT22;11671;49.990;8.028;2023-04-03T05:54:50;5.80;99.90
23010;DHT22;11671;49.990;8.028;2023-04-03T05:57:16;5.80;99.90
23010;DHT22;11671;49.990;8.028;2023-04-03T05:59:45;5.70;99.90
23010;DHT22;11671;49.990;8.028;2023-04-03T06:02:12;5.90;99.90
23010;DHT22;11671;49.990;8.028;2023-04-03T06:04:37;6.00;99.90
23010;DHT22;11671;49.990;8.028;2023-04-03T06:07:03;5.90;99.90
23010;DHT22;11671;49.990;8.028;2023-04-03T06:09:29;5.80;99.90
23010;DHT22;11671;49.990;8.028;2023-04-03T06:11:55;5.90;99.90
23010;DHT22;11671;49.990;8.028;2023-04-03T06:14:21;6.20;99.90
23010;DHT22;11671;49.990;8.028;2023-04-03T06:16:46;6.40;99.90
23010;DHT22;11671;49.990;8.028;2023-04-03T06:19:12;6.50;99.90
23010;DHT22;11671;49.990;8.028;2023-04-03T06:21:38;6.40;99.90
23010;DHT22;11671;49.990;8.028;2023-04-03T06:24:04;6.80;99.90
23010;DHT22;11671;49.990;8.028;2023-04-03T06:26:29;7.70;99.90
23010;DHT22;11671;49.990;8.028;2023-04-03T06:28:55;7.80;99.90
23010;DHT22;11671;49.990;8.028;2023-04-03T06:31:21;7.70;99.90
23010;DHT22;11671;49.990;8.028;2023-04-03T06:33:46;7.60;99.90
23010;DHT22;11671;49.990;8.028;2023-04-03T06:36:12;7.50;99.90
23010;DHT22;11671;49.990;8.028;2023-04-03T06:38:37;7.70;99.90
23010;DHT22;11671;49.990;8.028;2023-04-03T06:41:03;7.70;99.90
23010;DHT22;11671;49.990;8.028;2023-04-03T06:43:29;8.40;99.90
23010;DHT22;11671;49.990;8.028;2023-04-03T06:45:56;8.70;99.90
23010;DHT22;11671;49.990;8.028;2023-04-03T06:48:22;9.40;99.90
23010;DHT22;11671;49.990;8.028;2023-04-03T06:50:47;9.40;99.90
23010;DHT22;11671;49.990;8.028;2023-04-03T06:53:12;9.00;99.90
23010;DHT22;11671;49.990;8.028;2023-04-03T06:55:38;8.80;99.90
23010;DHT22;11671;49.990;8.028;2023-04-03T06:58:04;8.50;99.90
23010;DHT22;11671;49.990;8.028;2023-04-03T07:00:30;8.30;99.90
23010;DHT22;11671;49.990;8.028;2023-04-03T07:02:56;8.20;99.90
23010;DHT22;11671;49.990;8.028;2023-04-03T07:05:23;8.10;99.90
23010;DHT22;11671;49.990;8.028;2023-04-03T07:07:48;8.30;99.90
23010;DHT22;11671;49.990;8.028;2023-04-03T07:10:15;8.70;99.90
23010;DHT22;11671;49.990;8.028;2023-04-03T07:12:40;8.80;99.90
23010;DHT22;11671;49.990;8.028;2023-04-03T07:15:06;9.00;99.90
23010;DHT22;11671;49.990;8.028;2023-04-03T07:17:32;9.20;99.90
23010;DHT22;11671;49.990;8.028;2023-04-03T07:19:58;9.50;99.90
23010;DHT22;11671;49.990;8.028;2023-04-03T07:22:23;10.00;99.90
23010;DHT22;11671;49.990;8.028;2023-04-03T07:24:49;10.10;99.90
23010;DHT22;11671;49.990;8.028;2023-04-03T07:27:14;10.60;99.90
23010;DHT22;11671;49.990;8.028;2023-04-03T07:29:40;10.80;99.90
23010;DHT22;11671;49.990;8.028;2023-04-03T07:32:06;11.00;99.90
23010;DHT22;11671;49.990;8.028;2023-04-03T07:34:32;11.40;99.90
23010;DHT22;11671;49.990;8.028;2023-04-03T07:36:58;11.60;99.90
23010;DHT22;11671;49.990;8.028;2023-04-03T07:39:23;11.80;99.90
23010;DHT22;11671;49.990;8.028;2023-04-03T07:41:52;11.90;99.90
23010;DHT22;11671;49.990;8.028;2023-04-03T07:44:17;11.80;99.90
23010;DHT22;11671;49.990;8.028;2023-04-03T07:46:43;11.70;99.90
23010;DHT22;11671;49.990;8.028;2023-04-03T07:49:09;11.70;99.90
23010;DHT22;11671;49.990;8.028;2023-04-03T07:51:34;11.60;99.90
23010;DHT22;11671;49.990;8.028;2023-04-03T07:54:00;11.70;99.90
23010;DHT22;11671;49.990;8.028;2023-04-03T07:56:26;11.40;99.90
23010;DHT22;11671;49.990;8.028;2023-04-03T07:58:51;11.50;99.90
23010;DHT22;11671;49.990;8.028;2023-04-03T08:01:17;11.70;99.90
23010;DHT22;11671;49.990;8.028;2023-04-03T08:03:42;11.80;99.90
23010;DHT22;11671;49.990;8.028;2023-04-03T08:06:08;11.60;99.90
23010;DHT22;11671;49.990;8.028;2023-04-03T08:08:34;11.30;99.90
23010;DHT22;11671;49.990;8.028;2023-04-03T08:11:00;11.50;99.90
23010;DHT22;11671;49.990;8.028;2023-04-03T08:13:28;11.20;99.90
23010;DHT22;11671;49.990;8.028;2023-04-03T08:15:53;11.00;99.90
23010;DHT22;11671;49.990;8.028;2023-04-03T08:18:19;11.00;99.90
23010;DHT22;11671;49.990;8.028;2023-04-03T08:20:46;11.30;99.90
23010;DHT22;11671;49.990;8.028;2023-04-03T08:23:12;11.20;99.90
23010;DHT22;11671;49.990;8.028;2023-04-03T08:25:41;11.20;99.90
23010;DHT22;11671;49.990;8.028;2023-04-03T08:28:07;11.70;99.90
23010;DHT22;11671;49.990;8.028;2023-04-03T08:30:33;11.60;99.90
23010;DHT22;11671;49.990;8.028;2023-04-03T08:33:00;11.60;99.90
23010;DHT22;11671;49.990;8.028;2023-04-03T08:35:26;11.70;99.90
23010;DHT22;11671;49.990;8.028;2023-04-03T08:37:51;11.70;99.90
23010;DHT22;11671;49.990;8.028;2023-04-03T08:40:17;11.50;99.90
23010;DHT22;11671;49.990;8.028;2023-04-03T08:45:27;11.80;99.90
23010;DHT22;11671;49.990;8.028;2023-04-03T08:50:50;11.70;99.90
23010;DHT22;11671;49.990;8.028;2023-04-03T08:53:15;11.80;99.90
23010;DHT22;11671;49.990;8.028;2023-04-03T08:56:00;11.80;99.90
23010;DHT22;11671;49.990;8.028;2023-04-03T08:58:28;11.90;99.90
23010;DHT22;11671;49.990;8.028;2023-04-03T09:01:14;11.90;99.90
23010;DHT22;11671;49.990;8.028;2023-04-03T09:03:41;11.30;99.90
23010;DHT22;11671;49.990;8.028;2023-04-03T09:08:55;11.50;99.90
23010;DHT22;11671;49.990;8.028;2023-04-03T09:11:44;11.70;99.90
23010;DHT22;11671;49.990;8.028;2023-04-03T09:14:15;11.50;99.90
23010;DHT22;11671;49.990;8.028;2023-04-03T09:21:46;11.70;99.90
23010;DHT22;11671;49.990;8.028;2023-04-03T09:24:12;12.10;99.90
23010;DHT22;11671;49.990;8.028;2023-04-03T09:26:41;12.40;99.90
23010;DHT22;11671;49.990;8.028;2023-04-03T09:29:08;12.70;99.90
23010;DHT22;11671;49.990;8.028;2023-04-03T09:31:40;12.40;99.90
23010;DHT22;11671;49.990;8.028;2023-04-03T09:34:08;11.60;99.90
23010;DHT22;11671;49.990;8.028;2023-04-03T09:36:45;11.00;99.90
23010;DHT22;11671;49.990;8.028;2023-04-03T09:39:18;11.00;99.90
23010;DHT22;11671;49.990;8.028;2023-04-03T09:41:54;11.20;99.90
23010;DHT22;11671;49.990;8.028;2023-04-03T09:44:24;11.20;99.90
23010;DHT22;11671;49.990;8.028;2023-04-03T09:46:50;11.20;99.90
23010;DHT22;11671;49.990;8.028;2023-04-03T09:49:16;11.30;99.90
23010;DHT22;11671;49.990;8.028;2023-04-03T09:51:42;11.40;99.90
23010;DHT22;11671;49.990;8.028;2023-04-03T09:54:25;11.80;99.90
23010;DHT22;11671;49.990;8.028;2023-04-03T09:56:52;11.60;99.90
23010;DHT22;11671;49.990;8.028;2023-04-03T09:59:18;11.40;99.90
23010;DHT22;11671;49.990;8.028;2023-04-03T10:01:58;10.80;99.90
23010;DHT22;11671;49.990;8.028;2023-04-03T10:04:24;11.00;99.90
23010;DHT22;11671;49.990;8.028;2023-04-03T10:06:53;10.80;99.90
23010;DHT22;11671;49.990;8.028;2023-04-03T10:09:20;10.60;99.90
23010;DHT22;11671;49.990;8.028;2023-04-03T10:14:30;10.60;99.90
23010;DHT22;11671;49.990;8.028;2023-04-03T10:19:42;10.40;99.90
23010;DHT22;11671;49.990;8.028;2023-04-03T10:22:31;10.20;99.90
23010;DHT22;11671;49.990;8.028;2023-04-03T10:25:02;10.30;99.90
23010;DHT22;11671;49.990;8.028;2023-04-03T10:30:05;10.10;99.90
23010;DHT22;11671;49.990;8.028;2023-04-03T10:40:29;10.20;99.90
23010;DHT22;11671;49.990;8.028;2023-04-03T10:45:48;10.20;99.90
23010;DHT22;11671;49.990;8.028;2023-04-03T10:58:40;10.70;99.90
23010;DHT22;11671;49.990;8.028;2023-04-03T11:01:14;10.80;99.90
23010;DHT22;11671;49.990;8.028;2023-04-03T11:03:43;10.90;99.90
23010;DHT22;11671;49.990;8.028;2023-04-03T11:06:10;11.10;99.90
23010;DHT22;11671;49.990;8.028;2023-04-03T11:08:42;11.10;99.90
23010;DHT22;11671;49.990;8.028;2023-04-03T11:11:11;11.00;99.90
23010;DHT22;11671;49.990;8.028;2023-04-03T11:16:11;11.20;99.90
23010;DHT22;11671;49.990;8.028;2023-04-03T11:18:43;11.30;99.90
23010;DHT22;11671;49.990;8.028;2023-04-03T11:21:18;11.20;99.90
23010;DHT22;11671;49.990;8.028;2023-04-03T11:23:46;11.20;99.90
23010;DHT22;11671;49.990;8.028;2023-04-03T11:26:13;11.40;99.90
23010;DHT22;11671;49.990;8.028;2023-04-03T11:28:39;11.70;99.90
23010;DHT22;11671;49.990;8.028;2023-04-03T11:36:07;11.70;99.90
23010;DHT22;11671;49.990;8.028;2023-04-03T11:38:35;11.60;99.90
23010;DHT22;11671;49.990;8.028;2023-04-03T11:41:05;11.30;99.90
23010;DHT22;11671;49.990;8.028;2023-04-03T11:43:32;11.70;99.90
23010;DHT22;11671;49.990;8.028;2023-04-03T11:46:02;11.80;99.90
23010;DHT22;11671;49.990;8.028;2023-04-03T11:50:55;11.80;99.90
23010;DHT22;11671;49.990;8.028;2023-04-03T11:55:54;12.20;99.90
23010;DHT22;11671;49.990;8.028;2023-04-03T11:58:24;12.30;99.90
23010;DHT22;11671;49.990;8.028;2023-04-03T12:00:58;12.20;99.90
23010;DHT22;11671;49.990;8.028;2023-04-03T12:05:53;11.90;99.90
23010;DHT22;11671;49.990;8.028;2023-04-03T12:11:30;12.20;99.90
23010;DHT22;11671;49.990;8.028;2023-04-03T12:16:20;11.50;99.90
23010;DHT22;11671;49.990;8.028;2023-04-03T12:21:15;11.30;99.90
23010;DHT22;11671;49.990;8.028;2023-04-03T12:28:56;11.10;99.90
23010;DHT22;11671;49.990;8.028;2023-04-03T12:31:22;10.90;99.90
23010;DHT22;11671;49.990;8.028;2023-04-03T12:36:33;11.10;99.90
23010;DHT22;11671;49.990;8.028;2023-04-03T12:41:52;11.50;99.90
23010;DHT22;11671;49.990;8.028;2023-04-03T12:44:24;11.30;99.90
23010;DHT22;11671;49.990;8.028;2023-04-03T12:46:53;11.10;99.90
23010;DHT22;11671;49.990;8.028;2023-04-03T12:52:00;11.00;99.90
23010;DHT22;11671;49.990;8.028;2023-04-03T12:57:09;11.30;99.90
23010;DHT22;11671;49.990;8.028;2023-04-03T12:59:35;11.10;99.90
23010;DHT22;11671;49.990;8.028;2023-04-03T13:02:07;11.50;99.90
23010;DHT22;11671;49.990;8.028;2023-04-03T13:04:37;11.60;99.90
23010;DHT22;11671;49.990;8.028;2023-04-03T13:07:03;11.80;99.90
23010;DHT22;11671;49.990;8.028;2023-04-03T13:09:30;11.90;99.90
23010;DHT22;11671;49.990;8.028;2023-04-03T13:12:00;12.20;99.20
23010;DHT22;11671;49.990;8.028;2023-04-03T13:14:27;12.40;98.60
23010;DHT22;11671;49.990;8.028;2023-04-03T13:19:20;12.40;96.80
23010;DHT22;11671;49.990;8.028;2023-04-03T13:21:45;12.20;96.90
23010;DHT22;11671;49.990;8.028;2023-04-03T13:24:11;12.20;97.00
23010;DHT22;11671;49.990;8.028;2023-04-03T13:26:37;11.90;96.10
23010;DHT22;11671;49.990;8.028;2023-04-03T13:29:04;12.10;96.40
23010;DHT22;11671;49.990;8.028;2023-04-03T13:31:31;12.20;95.60
23010;DHT22;11671;49.990;8.028;2023-04-03T13:34:10;12.10;95.10
23010;DHT22;11671;49.990;8.028;2023-04-03T13:36:54;12.00;94.20
23010;DHT22;11671;49.990;8.028;2023-04-03T13:47:00;11.80;94.40
23010;DHT22;11671;49.990;8.028;2023-04-03T13:49:32;11.80;93.00
23010;DHT22;11671;49.990;8.028;2023-04-03T13:51:58;11.70;93.90
23010;DHT22;11671;49.990;8.028;2023-04-03T13:54:28;11.70;93.70
23010;DHT22;11671;49.990;8.028;2023-04-03T13:56:54;11.90;93.20
23010;DHT22;11671;49.990;8.028;2023-04-03T13:59:29;12.20;94.00
23010;DHT22;11671;49.990;8.028;2023-04-03T14:04:31;11.70;92.30
23010;DHT22;11671;49.990;8.028;2023-04-03T14:06:57;11.80;93.80
23010;DHT22;11671;49.990;8.028;2023-04-03T14:09:24;11.90;94.50
23010;DHT22;11671;49.990;8.028;2023-04-03T14:11:50;11.90;92.00
23010;DHT22;11671;49.990;8.028;2023-04-03T14:14:19;11.60;91.20
23010;DHT22;11671;49.990;8.028;2023-04-03T14:16:46;11.50;92.70
23010;DHT22;11671;49.990;8.028;2023-04-03T14:19:20;11.70;91.90
23010;DHT22;11671;49.990;8.028;2023-04-03T14:21:46;11.80;93.10
23010;DHT22;11671;49.990;8.028;2023-04-03T14:24:12;11.70;92.00
23010;DHT22;11671;49.990;8.028;2023-04-03T14:26:37;11.80;93.60
23010;DHT22;11671;49.990;8.028;2023-04-03T14:29:03;12.10;93.40
23010;DHT22;11671;49.990;8.028;2023-04-03T14:31:28;12.30;91.90
23010;DHT22;11671;49.990;8.028;2023-04-03T14:33:54;12.20;91.70
23010;DHT22;11671;49.990;8.028;2023-04-03T14:36:21;12.00;91.30
23010;DHT22;11671;49.990;8.028;2023-04-03T14:38:48;12.00;90.90
23010;DHT22;11671;49.990;8.028;2023-04-03T14:41:15;11.90;90.80
23010;DHT22;11671;49.990;8.028;2023-04-03T14:43:40;11.90;92.20
23010;DHT22;11671;49.990;8.028;2023-04-03T14:46:14;11.80;91.20
23010;DHT22;11671;49.990;8.028;2023-04-03T14:48:40;11.70;91.60
23010;DHT22;11671;49.990;8.028;2023-04-03T14:51:05;11.50;91.60
23010;DHT22;11671;49.990;8.028;2023-04-03T14:53:31;11.60;93.70
23010;DHT22;11671;49.990;8.028;2023-04-03T14:55:57;11.80;93.00
23010;DHT22;11671;49.990;8.028;2023-04-03T14:58:23;12.10;94.10
23010;DHT22;11671;49.990;8.028;2023-04-03T15:00:49;12.30;93.80
23010;DHT22;11671;49.990;8.028;2023-04-03T15:03:18;12.30;92.30
23010;DHT22;11671;49.990;8.028;2023-04-03T15:05:45;12.20;91.70
23010;DHT22;11671;49.990;8.028;2023-04-03T15:08:18;12.10;91.50
23010;DHT22;11671;49.990;8.028;2023-04-03T15:10:44;11.90;91.20
23010;DHT22;11671;49.990;8.028;2023-04-03T15:13:10;11.90;90.90
23010;DHT22;11671;49.990;8.028;2023-04-03T15:15:37;12.00;91.30
23010;DHT22;11671;49.990;8.028;2023-04-03T15:18:02;11.80;91.20
23010;DHT22;11671;49.990;8.028;2023-04-03T15:20:29;11.60;92.30
23010;DHT22;11671;49.990;8.028;2023-04-03T15:22:57;11.40;91.20
23010;DHT22;11671;49.990;8.028;2023-04-03T15:25:25;11.50;92.30
23010;DHT22;11671;49.990;8.028;2023-04-03T15:27:52;11.40;92.30
23010;DHT22;11671;49.990;8.028;2023-04-03T15:30:18;11.40;92.10
23010;DHT22;11671;49.990;8.028;2023-04-03T15:32:43;11.30;92.20
23010;DHT22;11671;49.990;8.028;2023-04-03T15:35:09;11.30;92.60
23010;DHT22;11671;49.990;8.028;2023-04-03T15:37:35;11.30;92.70
23010;DHT22;11671;49.990;8.028;2023-04-03T15:40:01;11.40;92.60
23010;DHT22;11671;49.990;8.028;2023-04-03T15:42:27;11.50;93.40
23010;DHT22;11671;49.990;8.028;2023-04-03T15:44:52;11.50;92.70
23010;DHT22;11671;49.990;8.028;2023-04-03T15:47:18;11.20;92.30
23010;DHT22;11671;49.990;8.028;2023-04-03T15:49:43;11.20;93.50
23010;DHT22;11671;49.990;8.028;2023-04-03T15:52:09;11.40;94.20
23010;DHT22;11671;49.990;8.028;2023-04-03T15:54:34;11.40;93.70
23010;DHT22;11671;49.990;8.028;2023-04-03T15:57:00;11.20;94.30
23010;DHT22;11671;49.990;8.028;2023-04-03T15:59:26;11.20;93.80
23010;DHT22;11671;49.990;8.028;2023-04-03T16:01:51;11.20;93.40
23010;DHT22;11671;49.990;8.028;2023-04-03T16:04:17;11.20;92.80
23010;DHT22;11671;49.990;8.028;2023-04-03T16:06:43;11.10;93.10
23010;DHT22;11671;49.990;8.028;2023-04-03T16:09:09;11.10;93.10
23010;DHT22;11671;49.990;8.028;2023-04-03T16:11:35;11.00;93.40
23010;DHT22;11671;49.990;8.028;2023-04-03T16:14:01;10.90;92.90
23010;DHT22;11671;49.990;8.028;2023-04-03T16:16:26;10.90;93.20
23010;DHT22;11671;49.990;8.028;2023-04-03T16:18:53;10.90;93.60
23010;DHT22;11671;49.990;8.028;2023-04-03T16:21:19;10.90;93.90
23010;DHT22;11671;49.990;8.028;2023-04-03T16:23:45;11.00;93.10
23010;DHT22;11671;49.990;8.028;2023-04-03T16:26:11;11.10;94.00
23010;DHT22;11671;49.990;8.028;2023-04-03T16:28:38;11.10;93.70
23010;DHT22;11671;49.990;8.028;2023-04-03T16:31:04;11.00;93.50
23010;DHT22;11671;49.990;8.028;2023-04-03T16:33:30;10.90;94.70
23010;DHT22;11671;49.990;8.028;2023-04-03T16:35:55;10.90;93.90
23010;DHT22;11671;49.990;8.028;2023-04-03T16:38:21;10.80;94.10
23010;DHT22;11671;49.990;8.028;2023-04-03T16:40:47;10.60;94.40
23010;DHT22;11671;49.990;8.028;2023-04-03T16:43:14;10.50;94.60
23010;DHT22;11671;49.990;8.028;2023-04-03T16:45:40;10.40;94.20
23010;DHT22;11671;49.990;8.028;2023-04-03T16:48:05;10.20;94.90
23010;DHT22;11671;49.990;8.028;2023-04-03T16:50:31;10.30;95.90
23010;DHT22;11671;49.990;8.028;2023-04-03T16:52:56;10.30;96.40
23010;DHT22;11671;49.990;8.028;2023-04-03T16:55:22;10.20;97.20
23010;DHT22;11671;49.990;8.028;2023-04-03T16:57:47;10.20;97.60
23010;DHT22;11671;49.990;8.028;2023-04-03T17:00:13;10.30;98.20
23010;DHT22;11671;49.990;8.028;2023-04-03T17:02:39;10.30;97.10
23010;DHT22;11671;49.990;8.028;2023-04-03T17:05:05;10.40;96.40
23010;DHT22;11671;49.990;8.028;2023-04-03T17:07:31;10.40;96.10
23010;DHT22;11671;49.990;8.028;2023-04-03T17:09:57;10.40;96.90
23010;DHT22;11671;49.990;8.028;2023-04-03T17:12:23;10.50;96.20